Time;durP1;ratioP1;P1;durP2;ratioP2;P2;SDS_P1;SDS_P2;PMS_P1;PMS_P2;Temp;Humidity;BMP_temperature;BMP_pressure;BME280_temperature;BME280_humidity;BME280_pressure;Samples;Min_cycle;Max_cycle;Signal;HPM_P1;HPM_P2
2023/04/02 00:00:35;;;;;;;1.10;1.10;;;11.80;99.90;;;11.78;nan;99795.53;4953300;28;20986;-67
2023/04/02 00:03:09;;;;;;;1.00;1.00;;;11.70;99.90;;;11.77;nan;99796.53;4937758;29;21296;-67
2023/04/02 00:05:48;;;;;;;0.77;0.77;;;11.70;99.90;;;11.74;nan;99799.41;4952374;28;20667;-67
2023/04/02 00:08:49;;;;;;;0.83;0.83;;;11.60;99.90;;;11.72;nan;99802.16;4978537;28;20635;-67
2023/04/02 00:11:36;;;;;;;1.30;1.30;;;11.60;99.90;;;11.72;nan;99802.16;4917697;28;20718;-67
2023/04/02 00:14:12;;;;;;;0.90;0.90;;;11.60;99.90;;;11.71;nan;99804.91;4953293;29;20652;-67
2023/04/02 00:16:40;;;;;;;1.30;1.30;;;11.60;99.90;;;11.69;nan;99808.47;4953821;28;20651;-66
2023/04/02 00:19:18;;;;;;;1.17;1.07;;;11.60;99.90;;;11.69;nan;99807.69;4953113;29;21013;-70
2023/04/02 00:21:46;;;;;;;1.73;1.63;;;11.60;99.90;;;11.67;nan;99815.63;4952673;28;20639;-69
2023/04/02 00:24:20;;;;;;;1.07;1.07;;;11.60;99.90;;;11.64;nan;99809.84;4936508;29;20672;-67
2023/04/02 00:26:50;;;;;;;1.03;1.03;;;11.60;99.90;;;11.63;nan;99821.22;4952225;28;21217;-67
2023/04/02 00:29:19;;;;;;;1.40;1.37;;;11.60;99.90;;;11.63;nan;99826.47;4952766;29;20643;-67
2023/04/02 00:31:54;;;;;;;1.33;1.33;;;11.50;99.90;;;11.60;nan;99829.34;4968596;28;20644;-68
2023/04/02 00:34:36;;;;;;;2.60;1.30;;;11.50;99.90;;;11.60;nan;99827.59;4953813;28;20722;-67
2023/04/02 00:37:06;;;;;;;1.00;1.00;;;11.50;99.90;;;11.61;nan;99831.00;4968527;28;20693;-69
2023/04/02 00:39:40;;;;;;;1.50;1.40;;;11.50;99.90;;;11.57;nan;99829.63;4933692;29;21033;-71
2023/04/02 00:42:11;;;;;;;3.67;1.20;;;11.50;99.90;;;11.56;nan;99825.38;4967270;28;20716;-71
2023/04/02 00:44:43;;;;;;;1.30;1.20;;;11.50;99.90;;;11.57;nan;99829.63;4952446;28;20737;-66
2023/04/02 00:47:23;;;;;;;1.43;1.23;;;11.50;99.90;;;11.57;nan;99833.06;4953001;29;20667;-66
2023/04/02 00:50:18;;;;;;;0.80;0.80;;;11.50;99.90;;;11.58;nan;99834.69;4968463;28;20640;-66
2023/04/02 00:52:50;;;;;;;0.70;0.70;;;11.50;99.90;;;11.55;nan;99839.38;4952442;28;20644;-65
2023/04/02 00:55:34;;;;;;;0.67;0.67;;;11.50;99.90;;;11.46;nan;99838.41;4948260;28;21009;-66
2023/04/02 00:58:02;;;;;;;0.90;0.90;;;11.40;99.90;;;11.37;nan;99833.97;4947722;28;20616;-68
2023/04/02 01:00:35;;;;;;;0.80;0.80;;;11.30;99.90;;;11.29;nan;99827.78;4947778;28;20626;-66
2023/04/02 01:03:16;;;;;;;1.07;1.07;;;11.20;99.90;;;11.24;nan;99832.59;4954474;28;21182;-70
2023/04/02 01:05:54;;;;;;;0.97;0.97;;;11.20;99.90;;;11.22;nan;99830.09;4947327;28;20663;-66
2023/04/02 01:08:52;;;;;;;1.10;1.10;;;11.10;99.90;;;11.22;nan;99834.50;4950798;28;20636;-66
2023/04/02 01:11:35;;;;;;;1.30;1.27;;;11.10;99.90;;;11.23;nan;99839.59;4951365;29;20624;-67
2023/04/02 01:14:40;;;;;;;0.90;0.90;;;11.10;99.90;;;11.27;nan;99840.97;4966978;28;20640;-66
2023/04/02 01:17:17;;;;;;;1.53;1.43;;;11.20;99.90;;;11.28;nan;99844.41;4952093;28;20668;-67
2023/04/02 01:20:27;;;;;;;9.23;5.30;;;11.20;99.90;;;11.24;nan;99843.03;4951832;28;20649;-66
2023/04/02 01:23:08;;;;;;;1.30;1.20;;;11.20;99.90;;;11.18;nan;99843.56;4952734;28;20632;-66
2023/04/02 01:25:46;;;;;;;0.70;0.70;;;11.10;99.90;;;11.20;nan;99849.50;4939447;28;20664;-67
2023/04/02 01:28:28;;;;;;;0.73;0.73;;;11.10;99.90;;;11.15;nan;99849.88;4952239;29;20632;-66
2023/04/02 01:30:57;;;;;;;0.73;0.73;;;11.10;99.90;;;11.16;nan;99848.09;4966724;28;20647;-67
2023/04/02 01:33:30;;;;;;;0.60;0.60;;;11.10;99.90;;;11.12;nan;99846.69;4936862;29;20628;-69
2023/04/02 01:36:11;;;;;;;0.80;0.80;;;11.10;99.90;;;11.13;nan;99864.84;4993794;23;20693;-64
2023/04/02 01:39:20;;;;;;;0.67;0.67;;;11.00;99.90;;;11.16;nan;99863.78;4990354;28;20631;-64
2023/04/02 01:42:00;;;;;;;0.60;0.60;;;11.00;99.90;;;11.14;nan;99863.88;4991545;28;20632;-65
2023/04/02 01:44:46;;;;;;;0.53;0.53;;;11.10;99.90;;;11.13;nan;99872.69;4985689;28;20694;-64
2023/04/02 01:47:17;;;;;;;0.87;0.60;;;11.00;99.90;;;11.10;nan;99877.31;4970441;28;20639;-65
2023/04/02 01:49:45;;;;;;;0.57;0.57;;;11.00;99.90;;;11.07;nan;99877.59;4970566;28;21188;-64
2023/04/02 01:52:34;;;;;;;0.70;0.70;;;11.00;99.90;;;11.08;nan;99874.03;4986448;28;20635;-63
2023/04/02 01:55:02;;;;;;;2.03;0.77;;;11.00;99.90;;;11.07;nan;99868.00;4971613;28;20647;-64
2023/04/02 01:57:29;;;;;;;0.57;0.57;;;11.00;99.90;;;11.07;nan;99865.38;4970747;28;20667;-66
2023/04/02 02:00:00;;;;;;;0.90;0.90;;;11.00;99.90;;;11.06;nan;99873.31;4956747;28;20634;-64
2023/04/02 02:02:27;;;;;;;0.70;0.70;;;11.00;99.90;;;11.07;nan;99875.00;4993600;28;20685;-66
2023/04/02 02:04:54;;;;;;;0.67;0.67;;;11.00;99.90;;;11.03;nan;99874.41;4972573;28;20651;-64
2023/04/02 02:07:22;;;;;;;0.83;0.63;;;11.00;99.90;;;11.04;nan;99877.84;4972112;28;20639;-65
2023/04/02 02:09:49;;;;;;;0.73;0.73;;;11.00;99.90;;;11.02;nan;99879.78;4971614;28;20623;-64
2023/04/02 02:12:16;;;;;;;0.70;0.70;;;11.00;99.90;;;10.97;nan;99874.94;4971466;28;21016;-64
2023/04/02 02:14:51;;;;;;;0.90;0.90;;;10.90;99.90;;;10.95;nan;99879.47;4971788;28;20742;-66
2023/04/02 02:17:26;;;;;;;1.30;1.03;;;10.90;99.90;;;10.93;nan;99886.59;4969273;28;20667;-64
2023/04/02 02:19:58;;;;;;;0.80;0.80;;;10.80;99.90;;;10.91;nan;99889.34;4987050;28;20634;-64
2023/04/02 02:22:37;;;;;;;0.63;0.63;;;10.80;99.90;;;10.91;nan;99894.56;4970144;28;20686;-63
2023/04/02 02:25:21;;;;;;;0.70;0.70;;;10.80;99.90;;;10.91;nan;99898.97;4970786;28;21070;-63
2023/04/02 02:28:09;;;;;;;1.40;1.30;;;10.80;99.90;;;10.88;nan;99900.03;4942373;29;20636;-64
2023/04/02 02:30:42;;;;;;;2.80;2.33;;;10.80;99.90;;;10.88;nan;99896.63;4966833;28;21190;-64
2023/04/02 02:33:24;;;;;;;1.97;1.80;;;10.80;99.90;;;10.87;nan;99902.78;4978824;28;21204;-64
2023/04/02 02:36:33;;;;;;;0.60;0.60;;;10.80;99.90;;;10.79;nan;99903.44;4970908;28;20655;-65
2023/04/02 02:39:18;;;;;;;3.63;1.03;;;10.70;99.90;;;10.78;nan;99914.81;4962097;28;20646;-66
2023/04/02 02:41:56;;;;;;;0.77;0.77;;;10.70;99.90;;;10.73;nan;99913.56;4969948;28;21260;-65
2023/04/02 02:44:28;;;;;;;0.53;0.53;;;10.70;99.90;;;10.68;nan;99913.13;4970128;28;20639;-65
2023/04/02 02:47:01;;;;;;;0.40;0.40;;;10.60;99.90;;;10.65;nan;99911.59;4970185;28;21033;-66
2023/04/02 02:49:35;;;;;;;0.87;0.87;;;10.50;99.90;;;10.65;nan;99914.19;4984324;28;20639;-67
2023/04/02 02:52:08;;;;;;;0.60;0.60;;;10.60;99.90;;;10.64;nan;99923.00;4969879;28;20722;-65
2023/04/02 02:54:44;;;;;;;0.90;0.87;;;10.50;99.90;;;10.65;nan;99922.00;4970674;28;20696;-65
2023/04/02 02:57:27;;;;;;;1.00;0.97;;;10.60;99.90;;;10.64;nan;99925.59;4968208;28;20647;-66
2023/04/02 02:59:57;;;;;;;0.93;0.93;;;10.50;99.90;;;10.63;nan;99925.69;4969001;28;21014;-65
2023/04/02 03:02:27;;;;;;;0.60;0.60;;;10.50;99.90;;;10.65;nan;99931.63;4970172;28;20627;-67
2023/04/02 03:04:55;;;;;;;0.87;0.87;;;10.60;99.90;;;10.62;nan;99926.66;4960580;28;20655;-65
2023/04/02 03:07:25;;;;;;;0.80;0.80;;;10.50;99.90;;;10.63;nan;99934.38;4965638;28;20724;-65
2023/04/02 03:10:11;;;;;;;0.67;0.67;;;10.50;99.90;;;10.61;nan;99938.88;4952657;28;20620;-65
2023/04/02 03:13:18;;;;;;;0.93;0.63;;;10.50;99.90;;;10.57;nan;99941.88;4964703;28;20693;-65
2023/04/02 03:16:17;;;;;;;1.37;0.60;;;10.50;99.90;;;10.59;nan;99945.19;4967012;28;20658;-65
2023/04/02 03:19:14;;;;;;;1.53;1.00;;;10.50;99.90;;;10.61;nan;99940.66;4966455;28;20693;-65
2023/04/02 03:22:15;;;;;;;0.80;0.80;;;10.50;99.90;;;10.62;nan;99950.16;4973337;28;20639;-67
2023/04/02 03:25:19;;;;;;;0.70;0.70;;;10.50;99.90;;;10.61;nan;99956.31;4988339;28;20649;-64
2023/04/02 03:27:50;;;;;;;0.90;0.67;;;10.50;99.90;;;10.59;nan;99961.66;4972834;28;20712;-65
2023/04/02 03:30:25;;;;;;;0.77;0.77;;;10.50;99.90;;;10.56;nan;99967.13;4989465;28;20645;-65
2023/04/02 03:33:03;;;;;;;0.87;0.87;;;10.50;99.90;;;10.55;nan;99965.47;4974605;28;21196;-65
2023/04/02 03:35:57;;;;;;;0.80;0.80;;;10.50;99.90;;;10.54;nan;99976.84;4976631;28;20654;-65
2023/04/02 03:38:28;;;;;;;0.90;0.90;;;10.50;99.90;;;10.58;nan;99978.28;4968945;28;20672;-65
2023/04/02 03:41:10;;;;;;;0.47;0.47;;;10.50;99.90;;;10.56;nan;99981.97;4970632;28;21012;-67
2023/04/02 03:43:46;;;;;;;0.93;0.93;;;10.50;99.90;;;10.50;nan;99977.25;4972106;28;20643;-67
2023/04/02 03:46:47;;;;;;;1.70;1.10;;;10.40;99.90;;;10.45;nan;99980.22;4974058;28;20662;-65
2023/04/02 03:49:29;;;;;;;0.67;0.67;;;10.40;99.90;;;10.49;nan;99980.81;4973894;28;20594;-65
2023/04/02 03:52:08;;;;;;;1.00;1.00;;;10.40;99.90;;;10.49;nan;99980.81;4973701;28;20643;-66
2023/04/02 03:54:35;;;;;;;0.90;0.90;;;10.40;99.90;;;10.53;nan;99990.03;4972203;28;21080;-65
2023/04/02 03:57:03;;;;;;;1.90;0.97;;;10.50;99.90;;;10.53;nan;99997.84;4972515;28;20671;-65
2023/04/02 04:00:19;;;;;;;1.00;1.00;;;10.50;99.90;;;10.55;nan;100002.00;4973094;28;20630;-66
2023/04/02 04:02:56;;;;;;;0.60;0.60;;;10.50;99.90;;;10.55;nan;100007.22;4972643;28;21259;-65
2023/04/02 04:05:29;;;;;;;0.77;0.77;;;10.50;99.90;;;10.51;nan;100005.81;4973099;28;21266;-65
2023/04/02 04:08:13;;;;;;;0.67;0.67;;;10.50;99.90;;;10.37;nan;100008.69;4974236;28;20700;-65
2023/04/02 04:10:41;;;;;;;0.53;0.53;;;10.40;99.90;;;10.35;nan;100015.81;4972670;28;20646;-65
2023/04/02 04:13:14;;;;;;;2.00;1.03;;;10.40;99.90;;;10.34;nan;100008.97;4984328;28;20643;-65
2023/04/02 04:15:59;;;;;;;0.90;0.90;;;10.50;99.90;;;10.34;nan;100011.56;4972367;28;20644;-65
2023/04/02 04:19:02;;;;;;;1.23;1.10;;;10.50;99.90;;;10.32;nan;100016.06;4967486;28;20648;-66
2023/04/02 04:21:35;;;;;;;0.77;0.77;;;10.40;99.90;;;10.33;nan;100020.31;4974107;28;20620;-65
2023/04/02 04:24:19;;;;;;;0.77;0.77;;;10.50;99.90;;;10.37;nan;100026.13;4962233;28;20698;-66
2023/04/02 04:27:08;;;;;;;1.00;0.90;;;10.50;99.90;;;10.33;nan;100024.72;4973777;28;20619;-65
2023/04/02 04:30:09;;;;;;;0.63;0.63;;;10.50;99.90;;;10.33;nan;100032.56;4981468;28;20644;-65
2023/04/02 04:32:49;;;;;;;0.63;0.63;;;10.40;99.90;;;10.29;nan;100039.78;4952254;28;20646;-65
2023/04/02 04:35:28;;;;;;;0.83;0.83;;;10.40;99.90;;;10.31;nan;100040.47;4982357;28;21052;-64
2023/04/02 04:38:26;;;;;;;0.80;0.80;;;10.40;99.90;;;10.30;nan;100038.84;4971908;28;20704;-65
2023/04/02 04:41:00;;;;;;;0.77;0.77;;;10.40;99.90;;;10.29;nan;100047.59;4953503;28;20616;-65
2023/04/02 04:43:44;;;;;;;1.00;1.00;;;10.40;99.90;;;10.33;nan;100054.22;4973170;28;20627;-66
2023/04/02 04:46:22;;;;;;;0.90;0.90;;;10.40;99.90;;;10.34;nan;100058.50;4967181;28;20659;-65
2023/04/02 04:49:01;;;;;;;0.93;0.93;;;10.40;99.90;;;10.34;nan;100061.09;4968103;28;20631;-67
2023/04/02 04:51:40;;;;;;;0.90;0.90;;;10.50;99.90;;;10.44;nan;100072.44;4958104;28;20623;-65
2023/04/02 04:54:12;;;;;;;1.53;1.20;;;10.50;99.90;;;10.35;nan;100072.38;4971282;28;20620;-66
2023/04/02 04:56:44;;;;;;;0.87;0.87;;;10.50;99.90;;;10.31;nan;100078.78;4987416;28;20623;-65
2023/04/02 04:59:24;;;;;;;1.87;0.67;;;10.40;99.90;;;10.33;nan;100080.28;4970936;28;20666;-67
2023/04/02 05:02:05;;;;;;;0.90;0.90;;;10.50;99.90;;;10.37;nan;100086.91;4963740;28;20636;-66
2023/04/02 05:04:37;;;;;;;0.83;0.83;;;10.50;99.90;;;10.32;nan;100077.81;4965138;28;20659;-64
2023/04/02 05:07:19;;;;;;;0.57;0.57;;;10.40;99.90;;;10.33;nan;100095.94;4971986;28;20640;-65
2023/04/02 05:10:13;;;;;;;1.00;1.00;;;10.40;99.90;;;10.34;nan;100092.41;4970627;28;20730;-65
2023/04/02 05:12:53;;;;;;;0.90;0.87;;;10.50;99.90;;;10.34;nan;100096.78;4971427;28;20611;-66
2023/04/02 05:15:34;;;;;;;1.00;1.00;;;10.50;99.90;;;10.36;nan;100100.09;4970571;28;20689;-66
2023/04/02 05:18:25;;;;;;;0.80;0.80;;;10.50;99.90;;;10.39;nan;100099.84;4970777;28;21247;-65
2023/04/02 05:21:20;;;;;;;0.70;0.70;;;10.50;99.90;;;10.38;nan;100109.47;4957825;28;20643;-65
2023/04/02 05:24:27;;;;;;;0.53;0.53;;;10.50;99.90;;;10.37;nan;100113.00;4956390;28;20635;-65
2023/04/02 05:27:01;;;;;;;0.60;0.60;;;10.50;99.90;;;10.37;nan;100118.22;4971111;28;20670;-66
2023/04/02 05:29:36;;;;;;;1.60;1.00;;;10.50;99.90;;;10.39;nan;100116.31;4968008;28;20631;-65
2023/04/02 05:32:14;;;;;;;0.87;0.83;;;10.50;99.90;;;10.40;nan;100123.19;4969248;28;20635;-65
2023/04/02 05:34:48;;;;;;;0.93;0.93;;;10.50;99.90;;;10.42;nan;100123.91;4969620;28;20725;-64
2023/04/02 05:37:23;;;;;;;0.70;0.70;;;10.60;99.90;;;10.41;nan;100130.09;4969484;28;20789;-65
2023/04/02 05:40:05;;;;;;;0.83;0.83;;;10.50;99.90;;;10.43;nan;100132.56;4965513;28;21013;-66
2023/04/02 05:42:36;;;;;;;0.80;0.80;;;10.50;99.90;;;10.34;nan;100128.91;4969520;28;20704;-63
2023/04/02 05:45:12;;;;;;;1.00;0.77;;;10.50;99.90;;;10.34;nan;100139.34;4969688;28;20715;-65
2023/04/02 05:47:42;;;;;;;1.00;1.00;;;10.40;99.90;;;10.39;nan;100139.78;4962886;28;20709;-66
2023/04/02 05:50:29;;;;;;;1.40;1.30;;;10.50;99.90;;;10.41;nan;100148.34;4985642;28;20670;-65
2023/04/02 05:53:20;;;;;;;1.33;1.30;;;10.50;99.90;;;10.45;nan;100157.59;4952266;28;20620;-65
2023/04/02 05:56:18;;;;;;;1.07;1.07;;;10.60;99.90;;;10.48;nan;100161.69;4978427;28;20729;-65
2023/04/02 05:58:53;;;;;;;0.77;0.77;;;10.60;99.90;;;10.60;nan;100166.81;4969544;28;20663;-65
2023/04/02 06:02:33;;;;;;;0.93;0.83;;;10.60;99.90;;;10.75;nan;100176.00;4967095;28;21017;-65
2023/04/02 06:05:15;;;;;;;1.00;0.93;;;10.70;99.90;;;10.75;nan;100180.41;4932652;29;20656;-65
2023/04/02 06:07:59;;;;;;;0.90;0.90;;;10.70;99.90;;;10.70;nan;100175.56;4977707;28;20635;-65
2023/04/02 06:10:48;;;;;;;1.10;1.10;;;10.60;99.90;;;10.64;nan;100183.88;4971684;28;20617;-64
2023/04/02 06:13:17;;;;;;;0.90;0.90;;;10.60;99.90;;;10.60;nan;100184.22;4971651;28;20639;-65
2023/04/02 06:15:45;;;;;;;1.13;1.13;;;10.60;99.90;;;10.54;nan;100187.34;4987151;28;20645;-65
2023/04/02 06:18:26;;;;;;;3.07;1.20;;;10.50;99.90;;;10.51;nan;100198.00;4953905;28;20766;-65
2023/04/02 06:20:54;;;;;;;0.80;0.80;;;10.50;99.90;;;10.52;nan;100199.66;4970332;28;20615;-65
2023/04/02 06:23:40;;;;;;;0.77;0.77;;;10.40;99.90;;;10.55;nan;100200.25;4971649;28;21281;-64
2023/04/02 06:26:39;;;;;;;0.80;0.80;;;10.50;99.90;;;10.59;nan;100204.25;4971732;28;20647;-67
2023/04/02 06:29:19;;;;;;;0.90;0.90;;;10.50;99.90;;;10.56;nan;100208.91;4970524;28;20639;-65
2023/04/02 06:32:00;;;;;;;1.97;1.07;;;10.50;99.90;;;10.55;nan;100213.28;4990106;28;21048;-65
2023/04/02 06:34:30;;;;;;;0.80;0.80;;;10.50;99.90;;;10.60;nan;100213.78;4970844;28;20689;-65
2023/04/02 06:37:09;;;;;;;1.20;1.17;;;10.50;99.90;;;10.60;nan;100216.38;4971157;28;20620;-65
2023/04/02 06:39:36;;;;;;;1.03;1.03;;;10.50;99.90;;;10.61;nan;100225.00;4979185;28;20667;-64
2023/04/02 06:42:25;;;;;;;1.97;1.27;;;10.60;99.90;;;10.67;nan;100224.53;4957140;28;20632;-65
2023/04/02 06:44:52;;;;;;;1.00;1.00;;;10.60;99.90;;;10.71;nan;100224.16;4963222;28;20671;-64
2023/04/02 06:47:50;;;;;;;1.10;1.10;;;10.60;99.90;;;10.70;nan;100240.78;4965085;28;20639;-67
2023/04/02 06:50:43;;;;;;;1.00;1.00;;;10.70;99.90;;;10.73;nan;100237.13;4944601;28;20651;-65
2023/04/02 06:53:22;;;;;;;1.17;1.07;;;10.60;99.90;;;10.77;nan;100244.59;4968775;28;21243;-65
2023/04/02 06:56:36;;;;;;;1.20;1.03;;;10.70;99.90;;;10.76;nan;100250.75;4970895;28;20659;-65
2023/04/02 06:59:06;;;;;;;1.27;1.03;;;10.70;99.90;;;10.80;nan;100253.94;4972336;28;20889;-64
2023/04/02 07:01:40;;;;;;;1.63;1.10;;;10.70;99.90;;;10.81;nan;100258.22;4974328;28;20623;-64
2023/04/02 07:04:09;;;;;;;0.90;0.90;;;10.70;99.90;;;10.85;nan;100262.22;4970087;28;20640;-65
2023/04/02 07:06:36;;;;;;;1.20;1.20;;;10.80;99.90;;;10.86;nan;100275.16;4956103;29;20616;-64
2023/04/02 07:09:04;;;;;;;1.03;1.03;;;10.80;99.90;;;10.92;nan;100272.06;4967434;28;20693;-65
2023/04/02 07:11:31;;;;;;;0.90;0.90;;;10.80;99.90;;;10.96;nan;100271.81;4974296;28;20627;-65
2023/04/02 07:13:58;;;;;;;1.10;1.10;;;10.90;99.90;;;11.00;nan;100273.25;4989430;28;20696;-65
2023/04/02 07:16:27;;;;;;;1.10;1.10;;;10.90;99.90;;;11.08;nan;100278.69;4974197;28;20647;-64
2023/04/02 07:18:54;;;;;;;1.43;1.33;;;11.00;99.90;;;11.14;nan;100281.63;4986744;28;20667;-64
2023/04/02 07:21:21;;;;;;;0.90;0.90;;;11.10;99.90;;;11.16;nan;100289.38;4975099;28;20611;-65
2023/04/02 07:23:48;;;;;;;1.03;1.03;;;11.10;99.90;;;11.18;nan;100298.72;4973949;28;20619;-66
2023/04/02 07:26:20;;;;;;;1.00;1.00;;;11.10;99.90;;;11.20;nan;100296.81;4969875;28;20666;-65
2023/04/02 07:28:48;;;;;;;0.90;0.90;;;11.10;99.90;;;11.20;nan;100298.59;4969293;28;21211;-65
2023/04/02 07:31:19;;;;;;;0.90;0.90;;;11.10;99.90;;;11.23;nan;100308.78;4974355;28;20677;-64
2023/04/02 07:33:46;;;;;;;1.17;1.13;;;11.20;99.90;;;11.30;nan;100312.59;4988409;28;20635;-66
2023/04/02 07:36:21;;;;;;;1.10;1.00;;;11.20;99.90;;;11.38;nan;100315.41;4992275;23;20698;-67
2023/04/02 07:38:48;;;;;;;1.43;1.43;;;11.30;99.90;;;11.44;nan;100322.75;4970967;28;21262;-67
2023/04/02 07:41:16;;;;;;;1.00;1.00;;;11.40;99.90;;;11.50;nan;100327.47;4973772;28;20643;-68
2023/04/02 07:43:43;;;;;;;3.17;1.47;;;11.40;99.90;;;11.55;nan;100331.41;4972414;28;20985;-66
2023/04/02 07:46:13;;;;;;;1.20;1.10;;;11.50;99.90;;;11.56;nan;100332.25;4959156;28;20659;-65
2023/04/02 07:48:41;;;;;;;1.37;1.37;;;11.50;99.90;;;11.62;nan;100336.97;4952428;28;20632;-66
2023/04/02 07:51:18;;;;;;;1.20;1.17;;;11.50;99.90;;;11.69;nan;100343.41;4968514;28;20638;-66
2023/04/02 07:53:48;;;;;;;1.27;1.27;;;11.60;99.90;;;11.78;nan;100350.47;4954962;28;21019;-66
2023/04/02 07:56:18;;;;;;;1.00;1.00;;;11.70;99.90;;;11.84;nan;100354.38;4952604;28;21053;-66
2023/04/02 07:58:46;;;;;;;0.87;0.87;;;11.80;99.90;;;11.89;nan;100358.28;4954010;28;20671;-68
2023/04/02 08:01:25;;;;;;;1.10;1.07;;;11.80;99.90;;;11.89;nan;100366.13;4962262;28;20638;-67
2023/04/02 08:03:54;;;;;;;1.00;1.00;;;11.80;99.90;;;11.96;nan;100362.06;4989316;28;20615;-68
2023/04/02 08:06:23;;;;;;;1.23;1.10;;;11.90;99.90;;;12.04;nan;100367.47;4976567;28;20667;-67
2023/04/02 08:08:51;;;;;;;1.30;1.23;;;11.90;99.90;;;12.12;nan;100372.91;4937666;29;20635;-67
2023/04/02 08:11:19;;;;;;;1.17;1.17;;;12.00;99.90;;;12.21;nan;100374.78;4948714;28;20647;-65
2023/04/02 08:13:46;;;;;;;1.20;1.10;;;12.10;99.90;;;12.30;nan;100383.63;4966226;28;20661;-66
2023/04/02 08:16:13;;;;;;;1.20;1.20;;;12.20;99.90;;;12.38;nan;100379.44;4966194;28;20726;-66
2023/04/02 08:18:40;;;;;;;1.23;1.23;;;12.30;99.90;;;12.44;nan;100380.69;4952137;29;20663;-65
2023/04/02 08:21:09;;;;;;;1.10;1.10;;;12.30;99.90;;;12.48;nan;100393.41;4952158;28;20647;-66
2023/04/02 08:23:36;;;;;;;1.23;1.23;;;12.40;99.90;;;12.51;nan;100394.09;4953804;29;20624;-66
2023/04/02 08:26:04;;;;;;;1.07;1.07;;;12.40;99.90;;;12.54;nan;100396.47;4952139;28;20672;-67
2023/04/02 08:28:31;;;;;;;1.57;1.47;;;12.50;99.90;;;12.56;nan;100405.84;4954057;29;20637;-67
2023/04/02 08:30:58;;;;;;;1.60;1.30;;;12.50;99.90;;;12.59;nan;100402.13;4952069;28;20632;-66
2023/04/02 08:33:25;;;;;;;1.20;1.20;;;12.50;99.90;;;12.67;nan;100407.56;4954011;28;20685;-66
2023/04/02 08:35:52;;;;;;;1.90;1.80;;;12.50;99.90;;;12.71;nan;100409.81;4953844;28;20675;-64
2023/04/02 08:38:22;;;;;;;1.27;1.27;;;12.60;99.90;;;12.72;nan;100416.69;4953736;29;20660;-67
2023/04/02 08:40:53;;;;;;;1.70;1.20;;;12.60;99.90;;;12.75;nan;100418.22;4957901;28;20635;-66
2023/04/02 08:43:39;;;;;;;1.17;1.17;;;12.70;99.90;;;12.80;nan;100419.47;4970340;28;20628;-66
2023/04/02 08:46:24;;;;;;;1.00;1.00;;;12.70;99.90;;;12.86;nan;100426.00;4952913;28;20660;-67
2023/04/02 08:48:58;;;;;;;1.33;1.33;;;12.80;99.90;;;12.93;nan;100427.13;4953426;28;20675;-66
2023/04/02 08:51:29;;;;;;;1.43;1.33;;;12.90;99.90;;;13.06;nan;100438.25;4956541;28;20637;-66
2023/04/02 08:54:11;;;;;;;2.07;1.50;;;12.90;99.90;;;13.16;nan;100439.16;4968464;28;20632;-66
2023/04/02 08:56:51;;;;;;;1.77;1.67;;;13.10;99.90;;;13.27;nan;100440.84;4944062;28;20703;-66
2023/04/02 08:59:31;;;;;;;1.70;1.60;;;13.20;99.90;;;13.41;nan;100446.56;4951694;29;20664;-66
2023/04/02 09:02:19;;;;;;;1.30;1.30;;;13.30;99.90;;;13.64;nan;100448.00;4949452;29;20640;-67
2023/04/02 09:04:46;;;;;;;2.33;2.23;;;13.50;99.90;;;13.82;nan;100445.56;4937207;28;20640;-64
2023/04/02 09:07:16;;;;;;;2.13;2.00;;;13.70;99.90;;;13.99;nan;100452.78;4968772;28;20627;-68
2023/04/02 09:09:48;;;;;;;2.63;2.50;;;13.80;99.90;;;14.09;nan;100458.03;4950964;28;20641;-66
2023/04/02 09:12:20;;;;;;;2.10;2.00;;;14.00;99.90;;;14.13;nan;100459.41;4965923;28;20632;-67
2023/04/02 09:15:21;;;;;;;3.23;2.93;;;14.00;99.90;;;14.17;nan;100466.88;4951103;28;20660;-65
2023/04/02 09:18:05;;;;;;;2.90;2.70;;;14.10;99.90;;;14.18;nan;100473.78;4951723;28;20650;-66
2023/04/02 09:20:32;;;;;;;2.30;2.10;;;14.10;99.90;;;14.15;nan;100478.47;4950754;28;20632;-65
2023/04/02 09:22:59;;;;;;;1.17;1.17;;;14.10;99.90;;;14.18;nan;100480.81;4951287;28;20628;-66
2023/04/02 09:25:30;;;;;;;3.03;2.73;;;14.10;99.90;;;14.03;nan;100478.56;4951248;28;20660;-66
2023/04/02 09:28:03;;;;;;;2.60;2.50;;;14.00;99.90;;;14.04;nan;100471.53;4952477;29;20608;-66
2023/04/02 09:31:10;;;;;;;2.80;2.60;;;14.00;99.90;;;13.99;nan;100485.06;4951616;29;20636;-68
2023/04/02 09:33:44;;;;;;;3.20;2.90;;;14.00;99.90;;;13.88;nan;100487.78;4951786;28;20699;-66
2023/04/02 09:36:34;;;;;;;3.20;2.70;;;13.80;99.90;;;13.80;nan;100497.28;4952318;28;20714;-70
2023/04/02 09:39:21;;;;;;;2.90;2.70;;;13.80;99.90;;;13.69;nan;100494.81;4951010;29;20668;-69
2023/04/02 09:41:49;;;;;;;2.77;2.63;;;13.70;99.90;;;13.59;nan;100510.50;4952549;28;20640;-67
2023/04/02 09:44:30;;;;;;;3.30;3.10;;;13.60;99.90;;;13.60;nan;100509.53;4951901;28;21201;-67
2023/04/02 09:47:09;;;;;;;2.70;2.50;;;13.60;99.90;;;13.71;nan;100527.81;4945048;28;20648;-68
2023/04/02 09:49:38;;;;;;;1.50;1.50;;;13.60;99.90;;;13.50;nan;100527.00;4950488;28;20982;-68
2023/04/02 09:52:28;;;;;;;1.00;1.00;;;13.50;99.90;;;12.92;nan;100532.84;4950750;28;20651;-68
2023/04/02 09:55:16;;;;;;;0.90;0.90;;;13.10;99.90;;;12.37;nan;100539.16;4951147;29;20668;-68
2023/04/02 09:57:46;;;;;;;0.77;0.77;;;12.50;99.90;;;12.13;nan;100552.41;4947377;29;20713;-66
2023/04/02 10:00:26;;;;;;;0.70;0.70;;;12.20;99.90;;;11.71;nan;100552.34;4966531;28;21332;-66
2023/04/02 10:03:22;;;;;;;0.73;0.73;;;11.80;99.90;;;11.32;nan;100545.75;4950438;29;20647;-68
2023/04/02 10:06:14;;;;;;;0.70;0.70;;;11.50;99.90;;;11.08;nan;100558.03;4943061;28;21325;-70
2023/04/02 10:08:44;;;;;;;0.63;0.63;;;11.20;99.90;;;10.87;nan;100560.50;4947949;28;20645;-65
2023/04/02 10:11:27;;;;;;;0.90;0.80;;;11.00;99.90;;;10.71;nan;100559.97;4953200;28;20624;-65
2023/04/02 10:14:16;;;;;;;1.47;1.00;;;10.70;99.90;;;10.61;nan;100565.00;4949040;28;20699;-69
2023/04/02 10:16:50;;;;;;;0.87;0.87;;;10.60;99.90;;;10.51;nan;100569.25;4932604;29;21180;-69
2023/04/02 10:19:41;;;;;;;0.80;0.80;;;10.60;99.90;;;10.43;nan;100582.00;4948078;28;21021;-66
2023/04/02 10:22:17;;;;;;;0.70;0.70;;;10.50;99.90;;;10.37;nan;100587.66;4950475;28;21090;-64
2023/04/02 10:24:44;;;;;;;0.70;0.70;;;10.30;99.90;;;10.34;nan;100592.25;4946403;28;20645;-65
2023/04/02 10:27:27;;;;;;;1.83;0.73;;;10.30;99.90;;;10.31;nan;100595.91;4968770;28;20650;-68
2023/04/02 10:30:18;;;;;;;0.50;0.50;;;10.30;99.90;;;10.35;nan;100607.78;4951718;28;20640;-67
2023/04/02 10:33:08;;;;;;;0.77;0.77;;;10.30;99.90;;;10.33;nan;100601.84;4967769;28;20642;-66
2023/04/02 10:36:32;;;;;;;0.60;0.60;;;10.30;99.90;;;10.28;nan;100616.16;4939158;28;20671;-66
2023/04/02 10:39:07;;;;;;;1.00;0.80;;;10.20;99.90;;;10.30;nan;100617.72;4955610;28;20667;-67
2023/04/02 10:42:32;;;;;;;0.70;0.70;;;10.30;99.90;;;10.31;nan;100622.00;4951691;28;20631;-67
2023/04/02 10:45:17;;;;;;;0.67;0.67;;;10.30;99.90;;;10.37;nan;100625.97;4910140;28;20833;-66
2023/04/02 10:47:59;;;;;;;0.70;0.70;;;10.30;99.90;;;10.46;nan;100633.09;4967114;28;20633;-67
2023/04/02 10:50:47;;;;;;;1.07;0.60;;;10.40;99.90;;;10.52;nan;100624.88;4967299;28;21204;-66
2023/04/02 10:53:20;;;;;;;0.57;0.57;;;10.50;99.90;;;10.55;nan;100635.06;4952876;28;21198;-66
2023/04/02 10:56:10;;;;;;;0.70;0.70;;;10.60;99.90;;;10.52;nan;100638.72;4951075;28;20652;-66
2023/04/02 10:58:59;;;;;;;0.60;0.60;;;10.50;99.90;;;10.59;nan;100653.00;4950069;29;20668;-69
2023/04/02 11:01:29;;;;;;;0.70;0.70;;;10.50;99.90;;;10.65;nan;100649.94;4951284;28;20996;-66
2023/04/02 11:04:32;;;;;;;0.73;0.73;;;10.60;99.90;;;10.63;nan;100641.41;4951112;28;20631;-67
2023/04/02 11:07:09;;;;;;;0.87;0.87;;;10.60;99.90;;;10.76;nan;100668.28;4950269;28;20636;-67
2023/04/02 11:09:45;;;;;;;0.87;0.87;;;10.70;99.90;;;10.92;nan;100657.56;4951745;28;20632;-67
2023/04/02 11:12:47;;;;;;;0.80;0.80;;;10.80;99.90;;;11.07;nan;100664.28;4951537;28;20635;-67
2023/04/02 11:15:17;;;;;;;1.00;1.00;;;11.00;99.90;;;11.14;nan;100667.28;4962461;28;21262;-67
2023/04/02 11:17:45;;;;;;;1.37;0.70;;;11.10;99.90;;;11.31;nan;100672.91;4952477;28;20644;-67